Cape Moreton, Australia
Current Conditions -  °F | °C
As of 1:30 PM on Saturday 20 Dec 2014 (Local Time) from YBBN Reporting Station
Few Clouds Few Clouds  
Wind Chill: 81°   Ceiling: Unl
Heat Index: 82°   Visibility: 6mi
Dew Point: 64°   Wind: 13mph
Humidity: 58%   Direction: 120°ESE
Pressure: 29.94"   Gusts: NA
Location:  27.03°S, 153.45°E
Report Text: YBBN 200330Z 12011KT 9999 FEW030 27/18 Q1014
Loading
Personal Weather Stations






























Interactive Weather Map New forecast layout! Learn more

10-Day Weather Forecast

Advertisements
Track Severe Weather on mobile